Time;durP1;ratioP1;P1;durP2;ratioP2;P2;SDS_P1;SDS_P2;PMS_P1;PMS_P2;Temp;Humidity;BMP_temperature;BMP_pressure;BME280_temperature;BME280_humidity;BME280_pressure;Samples;Min_cycle;Max_cycle;Signal;HPM_P1;HPM_P2
2023/11/22 00:00:17;;;;;;;27.75;17.33;;;8.40;99.90;;;;;;5014452;28;20097;-80
2023/11/22 00:02:44;;;;;;;26.45;17.55;;;8.40;99.90;;;;;;5010533;28;20056;-80
2023/11/22 00:05:11;;;;;;;29.00;17.35;;;8.40;99.90;;;;;;5007502;28;20104;-80
2023/11/22 00:07:38;;;;;;;25.15;16.15;;;8.40;99.90;;;;;;5016269;28;20429;-80
2023/11/22 00:10:05;;;;;;;29.08;17.33;;;8.30;99.90;;;;;;5008510;28;20046;-80
2023/11/22 00:12:36;;;;;;;26.65;16.70;;;8.30;99.90;;;;;;5012434;28;20065;-81
2023/11/22 00:15:05;;;;;;;27.80;16.80;;;8.30;99.90;;;;;;5007132;28;20053;-80
2023/11/22 00:17:33;;;;;;;31.45;18.20;;;8.40;99.90;;;;;;5018593;28;20089;-80
2023/11/22 00:20:05;;;;;;;28.55;17.73;;;8.40;99.90;;;;;;5015599;28;20050;-79
2023/11/22 00:22:32;;;;;;;31.58;18.98;;;8.40;99.90;;;;;;5017749;28;20399;-80
2023/11/22 00:25:01;;;;;;;30.90;18.52;;;8.40;99.90;;;;;;5009310;28;20136;-78
2023/11/22 00:27:29;;;;;;;29.15;17.48;;;8.40;99.90;;;;;;5016391;28;20137;-80
2023/11/22 00:29:57;;;;;;;29.85;17.00;;;8.40;99.90;;;;;;5009573;28;20451;-80
2023/11/22 00:32:24;;;;;;;31.92;18.35;;;8.40;99.90;;;;;;5008399;28;20051;-79
2023/11/22 00:34:51;;;;;;;26.50;17.40;;;8.50;99.90;;;;;;5010075;28;20685;-80
2023/11/22 00:37:18;;;;;;;32.33;18.60;;;8.50;99.90;;;;;;4998504;28;20065;-80
2023/11/22 00:39:45;;;;;;;32.85;17.42;;;8.50;99.90;;;;;;5016938;28;20391;-80
2023/11/22 00:42:12;;;;;;;34.67;18.50;;;8.50;99.90;;;;;;5012136;28;20061;-80
2023/11/22 00:44:39;;;;;;;30.27;17.15;;;8.60;99.90;;;;;;5013323;28;20477;-80
2023/11/22 00:47:06;;;;;;;30.00;17.83;;;8.60;99.90;;;;;;5009860;28;20119;-79
2023/11/22 00:49:33;;;;;;;27.65;18.05;;;8.60;99.90;;;;;;5006927;28;20050;-80
2023/11/22 00:51:59;;;;;;;32.90;18.10;;;8.50;99.90;;;;;;5013823;28;20050;-80
2023/11/22 00:54:28;;;;;;;26.10;17.50;;;8.50;99.90;;;;;;5019261;28;20069;-80
2023/11/22 00:56:55;;;;;;;26.35;17.52;;;8.50;99.90;;;;;;5010714;28;20069;-79
2023/11/22 00:59:21;;;;;;;30.02;17.35;;;8.50;99.90;;;;;;5019682;28;20046;-80
2023/11/22 01:01:48;;;;;;;26.55;17.25;;;8.60;99.90;;;;;;5017150;28;20045;-79
2023/11/22 01:04:15;;;;;;;25.92;17.08;;;8.50;99.90;;;;;;5018395;28;20421;-80
2023/11/22 01:06:42;;;;;;;29.83;17.63;;;8.50;99.90;;;;;;5004903;28;20050;-80
2023/11/22 01:09:08;;;;;;;28.42;18.05;;;8.50;99.90;;;;;;5019262;28;20517;-81
2023/11/22 01:11:35;;;;;;;29.67;17.05;;;8.50;99.90;;;;;;5007297;28;20064;-80
2023/11/22 01:14:02;;;;;;;27.52;16.30;;;8.40;99.90;;;;;;5021447;28;20108;-80
2023/11/22 01:16:29;;;;;;;27.42;17.05;;;8.40;99.90;;;;;;5000725;28;20069;-79
2023/11/22 01:18:55;;;;;;;28.92;17.10;;;8.40;99.90;;;;;;5020015;28;20046;-80
2023/11/22 01:21:22;;;;;;;28.92;17.58;;;8.30;99.90;;;;;;5021913;28;20437;-80
2023/11/22 01:23:49;;;;;;;27.05;16.65;;;8.30;99.90;;;;;;5017395;28;20057;-80
2023/11/22 01:26:16;;;;;;;29.15;17.27;;;8.30;99.90;;;;;;5013645;28;20046;-80
2023/11/22 01:28:44;;;;;;;29.67;16.85;;;8.30;99.90;;;;;;5013876;28;20150;-80
2023/11/22 01:31:13;;;;;;;27.17;16.48;;;8.30;99.90;;;;;;5017751;28;20057;-80
2023/11/22 01:33:40;;;;;;;27.92;17.50;;;8.20;99.90;;;;;;5012459;28;20046;-79
2023/11/22 01:36:07;;;;;;;27.70;16.20;;;8.30;99.90;;;;;;5022069;28;20053;-80
2023/11/22 01:38:34;;;;;;;30.75;17.77;;;8.30;99.90;;;;;;5014404;28;20046;-80
2023/11/22 01:41:01;;;;;;;29.95;17.38;;;8.30;99.90;;;;;;5018352;28;20080;-80
2023/11/22 01:43:28;;;;;;;29.15;17.10;;;8.30;99.90;;;;;;5008487;28;20056;-79
2023/11/22 01:45:55;;;;;;;25.75;17.38;;;8.30;99.90;;;;;;5017934;28;20046;-80
2023/11/22 01:48:23;;;;;;;31.20;17.35;;;8.30;99.90;;;;;;5007919;28;20046;-78
2023/11/22 01:50:50;;;;;;;25.67;16.63;;;8.20;99.90;;;;;;5015408;28;20395;-80
2023/11/22 01:53:18;;;;;;;28.83;15.73;;;8.30;99.90;;;;;;5018246;28;20092;-79
2023/11/22 01:55:47;;;;;;;25.80;14.88;;;8.30;99.90;;;;;;5012287;28;20060;-80
2023/11/22 01:58:15;;;;;;;26.25;15.63;;;8.20;99.90;;;;;;5010600;28;20045;-79
2023/11/22 02:00:49;;;;;;;24.98;15.30;;;8.20;99.90;;;;;;5010831;28;20498;-79
2023/11/22 02:03:16;;;;;;;20.20;13.23;;;8.20;99.90;;;;;;4999037;28;20054;-80
2023/11/22 02:05:45;;;;;;;28.33;15.48;;;8.20;99.90;;;;;;5012526;28;20721;-80
2023/11/22 02:08:13;;;;;;;25.40;14.18;;;8.10;99.90;;;;;;5019650;28;20049;-79
2023/11/22 02:10:40;;;;;;;24.98;13.60;;;8.10;99.90;;;;;;5001306;28;20050;-80
2023/11/22 02:13:07;;;;;;;26.20;14.68;;;8.10;99.90;;;;;;5019074;28;20045;-80
2023/11/22 02:15:35;;;;;;;26.98;14.60;;;8.20;99.90;;;;;;5011650;28;20046;-80
2023/11/22 02:18:06;;;;;;;22.63;14.68;;;8.20;99.90;;;;;;5018964;28;20045;-80
2023/11/22 02:20:39;;;;;;;27.80;14.68;;;8.20;99.90;;;;;;5017575;28;20048;-80
2023/11/22 02:23:11;;;;;;;26.05;14.50;;;8.30;99.90;;;;;;5014501;28;20042;-79
2023/11/22 02:25:38;;;;;;;24.63;14.95;;;8.30;99.90;;;;;;5013641;28;20100;-80
2023/11/22 02:28:08;;;;;;;23.75;14.32;;;8.30;99.90;;;;;;4993558;28;20057;-80
2023/11/22 02:30:36;;;;;;;24.73;14.45;;;8.30;99.90;;;;;;5019717;28;20054;-80
2023/11/22 02:33:04;;;;;;;29.77;15.77;;;8.40;99.90;;;;;;5007993;28;20050;-80
2023/11/22 02:35:32;;;;;;;27.60;15.70;;;8.40;99.90;;;;;;5015791;28;20137;-80
2023/11/22 02:37:59;;;;;;;27.10;15.00;;;8.40;99.90;;;;;;5015563;28;20049;-79
2023/11/22 02:40:27;;;;;;;23.23;14.73;;;8.40;99.90;;;;;;5016827;28;20608;-80
2023/11/22 02:42:55;;;;;;;26.38;15.60;;;8.40;99.90;;;;;;5012324;28;20045;-80
2023/11/22 02:45:27;;;;;;;25.55;14.40;;;8.30;99.90;;;;;;4993625;28;20058;-80
2023/11/22 02:47:55;;;;;;;27.85;15.68;;;8.30;99.90;;;;;;5006114;28;20088;-80
2023/11/22 02:50:22;;;;;;;29.23;16.05;;;8.30;99.90;;;;;;5014816;28;20141;-80
2023/11/22 02:52:49;;;;;;;24.92;16.17;;;8.40;99.90;;;;;;5017074;28;20518;-80
2023/11/22 02:55:15;;;;;;;29.50;16.20;;;8.40;99.90;;;;;;5013352;28;20108;-80
2023/11/22 02:57:42;;;;;;;28.77;15.82;;;8.40;99.90;;;;;;5016553;28;20042;-80
2023/11/22 03:00:14;;;;;;;31.80;16.85;;;8.40;99.90;;;;;;5014866;28;20045;-80
2023/11/22 03:02:41;;;;;;;27.67;16.05;;;8.40;99.90;;;;;;5017067;28;20046;-79
2023/11/22 03:05:12;;;;;;;33.22;17.15;;;8.40;99.90;;;;;;5011246;28;20088;-80
2023/11/22 03:07:40;;;;;;;26.13;15.63;;;8.40;99.90;;;;;;5017907;28;20134;-80
2023/11/22 03:10:08;;;;;;;32.22;16.13;;;8.40;99.90;;;;;;5014771;28;20049;-78
2023/11/22 03:12:35;;;;;;;22.55;14.38;;;8.40;99.90;;;;;;5016833;28;20052;-80
2023/11/22 03:15:02;;;;;;;20.45;12.82;;;8.40;99.90;;;;;;5014396;28;20091;-78
2023/11/22 03:17:29;;;;;;;17.10;11.85;;;8.30;99.90;;;;;;5016001;28;20049;-80
2023/11/22 03:19:57;;;;;;;14.38;9.85;;;8.20;99.90;;;;;;5012789;28;20528;-79
2023/11/22 03:22:30;;;;;;;18.58;11.52;;;8.00;99.90;;;;;;5012556;28;20042;-78
2023/11/22 03:24:58;;;;;;;19.42;11.68;;;7.70;99.90;;;;;;5018023;28;20502;-79
2023/11/22 03:27:26;;;;;;;17.23;10.93;;;7.50;99.90;;;;;;5013004;28;20053;-79
2023/11/22 03:29:53;;;;;;;23.20;12.32;;;7.30;99.90;;;;;;5015464;28;20109;-78
2023/11/22 03:32:19;;;;;;;22.40;12.43;;;7.20;99.90;;;;;;5011885;28;20046;-79
2023/11/22 03:34:46;;;;;;;16.00;11.25;;;7.10;99.90;;;;;;5019503;28;20042;-79
2023/11/22 03:37:13;;;;;;;23.17;12.48;;;7.00;99.90;;;;;;5009989;28;20082;-80
2023/11/22 03:39:40;;;;;;;26.33;14.88;;;7.00;99.90;;;;;;5016654;28;20042;-80
2023/11/22 03:42:06;;;;;;;19.42;12.30;;;7.00;99.90;;;;;;5014863;28;20097;-80
2023/11/22 03:44:33;;;;;;;17.77;12.65;;;6.90;99.90;;;;;;5016432;28;20050;-79
2023/11/22 03:47:00;;;;;;;19.23;12.23;;;6.90;99.90;;;;;;5014595;28;20088;-79
2023/11/22 03:49:27;;;;;;;16.48;11.63;;;6.90;99.90;;;;;;5013122;28;20048;-79
2023/11/22 03:51:54;;;;;;;13.00;9.35;;;6.90;99.90;;;;;;5011766;28;20494;-80
2023/11/22 03:54:21;;;;;;;15.90;11.38;;;6.80;99.90;;;;;;5015357;28;20045;-81
2023/11/22 03:56:48;;;;;;;15.43;10.18;;;6.80;99.90;;;;;;5013117;28;20046;-80
2023/11/22 03:59:14;;;;;;;14.50;11.32;;;6.80;99.90;;;;;;5015114;28;20417;-80
2023/11/22 04:01:41;;;;;;;18.23;11.02;;;6.70;99.90;;;;;;5012672;28;20037;-81
2023/11/22 04:04:09;;;;;;;14.20;9.75;;;6.70;99.90;;;;;;5014820;28;20100;-80
2023/11/22 04:06:36;;;;;;;15.23;10.55;;;6.60;99.90;;;;;;5017202;28;20049;-80
2023/11/22 04:09:03;;;;;;;13.20;9.90;;;6.60;99.90;;;;;;5010420;28;20038;-80
2023/11/22 04:11:30;;;;;;;15.25;10.68;;;6.50;99.90;;;;;;5009703;28;20046;-80
2023/11/22 04:13:57;;;;;;;13.63;9.82;;;6.50;99.90;;;;;;5010008;28;20079;-80
2023/11/22 04:16:25;;;;;;;12.60;9.35;;;6.40;99.90;;;;;;5009046;28;20045;-79
2023/11/22 04:18:52;;;;;;;13.43;9.10;;;6.40;99.90;;;;;;5000765;28;20046;-80
2023/11/22 04:21:19;;;;;;;14.57;9.75;;;6.40;99.90;;;;;;5020501;28;20117;-80
2023/11/22 04:23:46;;;;;;;11.48;9.40;;;6.40;99.90;;;;;;5012649;28;20042;-80
2023/11/22 04:26:12;;;;;;;14.77;9.40;;;6.30;99.90;;;;;;5022515;28;20050;-80
2023/11/22 04:28:39;;;;;;;15.05;9.30;;;6.30;99.90;;;;;;5018241;28;20532;-80
2023/11/22 04:31:08;;;;;;;11.65;7.82;;;6.30;99.90;;;;;;5023618;28;20041;-79
2023/11/22 04:33:36;;;;;;;10.52;8.10;;;6.20;99.90;;;;;;5022613;28;20042;-80
2023/11/22 04:36:03;;;;;;;10.85;7.63;;;6.20;99.90;;;;;;5021077;28;20045;-80
2023/11/22 04:38:29;;;;;;;13.00;8.00;;;6.10;99.90;;;;;;5022010;28;20088;-79
2023/11/22 04:40:56;;;;;;;11.05;8.13;;;6.10;99.90;;;;;;5024724;28;20493;-80
2023/11/22 04:43:23;;;;;;;11.32;8.90;;;6.00;99.90;;;;;;5021288;28;20108;-79
2023/11/22 04:45:50;;;;;;;13.35;8.75;;;6.00;99.90;;;;;;5008878;28;20133;-80
2023/11/22 04:48:16;;;;;;;11.25;8.63;;;6.00;99.90;;;;;;5014470;28;20057;-80
2023/11/22 04:50:43;;;;;;;10.45;7.90;;;5.90;99.90;;;;;;5020485;28;20416;-79
2023/11/22 04:53:10;;;;;;;12.45;8.25;;;5.70;99.90;;;;;;5025044;28;20069;-79
2023/11/22 04:55:37;;;;;;;10.57;8.32;;;5.60;99.90;;;;;;5018371;28;20049;-79
2023/11/22 04:58:04;;;;;;;14.88;9.13;;;5.50;99.90;;;;;;5022714;28;20069;-79
2023/11/22 05:00:31;;;;;;;13.65;10.40;;;5.50;99.90;;;;;;5012728;28;20065;-80
2023/11/22 05:02:58;;;;;;;12.18;8.93;;;5.60;99.90;;;;;;5021803;28;20042;-79
2023/11/22 05:05:25;;;;;;;11.75;8.27;;;5.50;99.90;;;;;;5017358;28;20045;-82
2023/11/22 05:07:52;;;;;;;12.35;8.98;;;5.50;99.90;;;;;;5016141;28;20071;-79
2023/11/22 05:10:19;;;;;;;11.50;8.38;;;5.50;99.90;;;;;;5015407;28;20513;-79
2023/11/22 05:12:46;;;;;;;13.07;9.00;;;5.50;99.90;;;;;;5012870;28;20054;-79
2023/11/22 05:15:14;;;;;;;12.95;9.45;;;5.40;99.90;;;;;;5014896;28;20566;-79
2023/11/22 05:17:40;;;;;;;12.13;9.88;;;5.40;99.90;;;;;;5014860;28;20093;-80
2023/11/22 05:20:11;;;;;;;13.43;9.15;;;5.50;99.90;;;;;;5018224;28;20413;-79
2023/11/22 05:22:38;;;;;;;12.43;9.30;;;5.50;99.90;;;;;;5001401;28;20042;-80
2023/11/22 05:25:07;;;;;;;13.10;9.73;;;5.40;99.90;;;;;;5020744;28;20054;-80
2023/11/22 05:27:33;;;;;;;12.32;8.80;;;5.40;99.90;;;;;;5009448;28;20050;-80
2023/11/22 05:30:00;;;;;;;12.23;9.30;;;5.40;99.90;;;;;;5021734;28;20073;-80
2023/11/22 05:32:30;;;;;;;12.80;9.35;;;5.50;99.90;;;;;;5012627;28;20061;-81
2023/11/22 05:34:57;;;;;;;13.15;9.30;;;5.50;99.90;;;;;;5019627;28;20055;-80
2023/11/22 05:37:24;;;;;;;12.38;8.48;;;5.40;99.90;;;;;;5018836;28;20044;-80
2023/11/22 05:39:53;;;;;;;9.57;6.60;;;5.50;99.90;;;;;;5023177;28;20046;-79
2023/11/22 05:42:19;;;;;;;9.40;7.00;;;5.40;99.90;;;;;;5018359;28;20045;-80
2023/11/22 05:44:46;;;;;;;8.77;6.20;;;5.40;99.90;;;;;;5023021;28;20053;-80
2023/11/22 05:47:13;;;;;;;7.85;5.70;;;5.30;99.90;;;;;;5004288;28;20099;-81
2023/11/22 05:49:40;;;;;;;6.63;5.13;;;5.30;99.90;;;;;;5011510;28;20116;-80
2023/11/22 05:52:07;;;;;;;7.00;5.38;;;5.30;99.90;;;;;;5022836;28;20538;-80
2023/11/22 05:54:34;;;;;;;6.97;5.15;;;5.30;99.90;;;;;;5013815;28;20049;-81
2023/11/22 05:57:00;;;;;;;6.57;5.22;;;5.20;99.90;;;;;;5021323;28;20084;-80
2023/11/22 05:59:27;;;;;;;6.15;4.63;;;5.10;99.90;;;;;;5014991;28;20046;-81
2023/11/22 06:01:54;;;;;;;6.32;4.35;;;5.20;99.90;;;;;;5017754;28;20046;-79
2023/11/22 06:04:21;;;;;;;4.70;3.53;;;5.10;99.90;;;;;;5021633;28;20042;-80
2023/11/22 06:06:47;;;;;;;4.57;3.30;;;5.00;99.90;;;;;;5015052;28;20079;-80
2023/11/22 06:09:14;;;;;;;3.55;2.88;;;4.90;99.90;;;;;;5019128;28;20041;-80
2023/11/22 06:11:41;;;;;;;4.53;3.28;;;4.90;99.90;;;;;;5003249;28;20044;-81
2023/11/22 06:14:08;;;;;;;4.13;2.70;;;4.80;99.90;;;;;;5012762;28;20080;-80
2023/11/22 06:16:35;;;;;;;4.22;2.75;;;4.80;99.90;;;;;;5015347;28;20041;-81
2023/11/22 06:19:02;;;;;;;5.07;3.20;;;4.60;99.90;;;;;;5020403;28;20121;-80
2023/11/22 06:21:29;;;;;;;5.53;3.50;;;4.60;99.90;;;;;;5016921;28;20088;-81
2023/11/22 06:23:57;;;;;;;4.47;3.42;;;4.60;99.90;;;;;;5013427;28;20049;-82
2023/11/22 06:26:25;;;;;;;5.30;3.97;;;4.50;99.90;;;;;;5012940;28;20045;-81
2023/11/22 06:28:52;;;;;;;4.93;3.97;;;4.40;99.90;;;;;;5019993;28;20062;-80
2023/11/22 06:31:19;;;;;;;4.90;3.97;;;4.40;99.90;;;;;;5015440;28;20050;-80
2023/11/22 06:33:46;;;;;;;6.60;4.45;;;4.50;99.90;;;;;;5019166;28;20042;-80
2023/11/22 06:36:14;;;;;;;6.63;4.38;;;4.50;99.90;;;;;;5013626;28;20449;-80
2023/11/22 06:38:41;;;;;;;6.40;4.65;;;4.50;99.90;;;;;;5010589;28;20046;-80
2023/11/22 06:41:08;;;;;;;7.80;4.30;;;4.40;99.90;;;;;;5018891;28;20042;-81
2023/11/22 06:43:35;;;;;;;7.50;4.97;;;4.40;99.90;;;;;;5019493;28;20137;-80
2023/11/22 06:46:05;;;;;;;7.03;5.15;;;4.40;99.90;;;;;;5010571;28;20046;-80
2023/11/22 06:48:33;;;;;;;;;;;4.50;99.90;;;;;;4998833;28;20111;-80
2023/11/22 06:51:00;;;;;;;8.93;5.15;;;4.40;99.90;;;;;;5017590;28;19979;-80
2023/11/22 06:53:27;;;;;;;7.57;4.78;;;4.40;99.90;;;;;;5019761;28;20057;-80
2023/11/22 06:55:54;;;;;;;6.45;4.47;;;4.20;99.90;;;;;;5013234;28;20130;-81
2023/11/22 06:58:21;;;;;;;9.25;6.03;;;4.10;99.90;;;;;;5018623;28;20073;-80
2023/11/22 07:00:48;;;;;;;7.63;5.25;;;4.10;99.90;;;;;;5026001;28;20041;-80
2023/11/22 07:03:15;;;;;;;7.93;5.53;;;4.00;99.90;;;;;;5017134;28;20050;-81
2023/11/22 07:05:43;;;;;;;6.93;4.95;;;4.10;99.90;;;;;;5012533;28;20072;-80
2023/11/22 07:08:16;;;;;;;7.03;5.25;;;4.00;99.90;;;;;;5015109;28;20050;-80
2023/11/22 07:10:44;;;;;;;8.25;6.05;;;4.10;99.90;;;;;;5023207;28;20504;-79
2023/11/22 07:13:12;;;;;;;7.80;5.75;;;4.10;99.90;;;;;;5015826;28;20045;-80
2023/11/22 07:15:40;;;;;;;7.88;5.47;;;4.00;99.90;;;;;;5019832;28;20108;-80
2023/11/22 07:18:09;;;;;;;5.97;4.80;;;4.10;99.90;;;;;;5012442;28;20042;-80
2023/11/22 07:20:37;;;;;;;8.20;6.55;;;4.10;99.90;;;;;;5017535;28;20126;-80
2023/11/22 07:23:04;;;;;;;7.93;5.93;;;4.20;99.90;;;;;;5000208;28;20050;-80
2023/11/22 07:25:31;;;;;;;8.02;5.85;;;4.30;99.90;;;;;;5017312;28;20084;-80
2023/11/22 07:27:59;;;;;;;8.50;6.07;;;4.30;99.90;;;;;;5013331;28;20077;-80
2023/11/22 07:30:29;;;;;;;10.10;6.07;;;4.30;99.90;;;;;;5016088;28;20060;-80
2023/11/22 07:32:58;;;;;;;8.98;6.68;;;4.30;99.90;;;;;;5018517;28;20050;-80
2023/11/22 07:35:27;;;;;;;8.68;5.97;;;4.40;99.90;;;;;;5013775;28;20096;-79
2023/11/22 07:37:55;;;;;;;9.07;6.50;;;4.40;99.90;;;;;;5013935;28;20043;-80
2023/11/22 07:40:22;;;;;;;8.38;6.20;;;4.30;99.90;;;;;;5012763;28;20096;-80
2023/11/22 07:42:49;;;;;;;10.40;5.93;;;4.40;99.90;;;;;;5015277;28;20124;-80
2023/11/22 07:45:16;;;;;;;8.65;6.75;;;4.30;99.90;;;;;;5014810;28;20076;-79
2023/11/22 07:47:44;;;;;;;7.75;5.50;;;4.30;99.90;;;;;;5017767;28;20054;-80
2023/11/22 07:50:11;;;;;;;10.45;6.22;;;4.20;99.90;;;;;;5011206;28;20060;-80
2023/11/22 07:52:40;;;;;;;9.10;6.28;;;4.10;99.90;;;;;;5017946;28;20081;-80
2023/11/22 07:55:10;;;;;;;9.38;7.28;;;4.00;99.90;;;;;;5026401;28;20409;-79
2023/11/22 07:57:38;;;;;;;9.90;6.80;;;4.00;99.90;;;;;;5015481;28;20042;-80
2023/11/22 08:00:07;;;;;;;11.43;6.85;;;4.00;99.90;;;;;;5003266;28;20049;-80
2023/11/22 08:02:34;;;;;;;11.80;8.10;;;4.10;99.90;;;;;;5019451;28;20045;-80
2023/11/22 08:05:08;;;;;;;11.20;7.35;;;4.10;99.90;;;;;;5015034;28;20052;-80
2023/11/22 08:07:40;;;;;;;11.45;6.70;;;4.10;99.90;;;;;;5014107;28;20042;-80
2023/11/22 08:10:18;;;;;;;11.35;7.57;;;3.90;99.90;;;;;;5021871;28;20162;-80
2023/11/22 08:12:47;;;;;;;9.82;7.40;;;3.90;99.90;;;;;;5010273;28;20046;-80
2023/11/22 08:15:17;;;;;;;11.43;8.30;;;3.90;99.90;;;;;;5017569;28;20049;-79
2023/11/22 08:17:44;;;;;;;9.82;7.47;;;4.00;99.90;;;;;;5013937;28;20152;-80
2023/11/22 08:20:16;;;;;;;10.88;7.35;;;3.80;99.90;;;;;;5010811;28;20073;-80
2023/11/22 08:22:49;;;;;;;9.63;7.10;;;3.80;99.90;;;;;;5013631;28;20041;-80
2023/11/22 08:25:16;;;;;;;11.90;7.82;;;3.90;99.90;;;;;;5011451;28;20133;-80
2023/11/22 08:27:43;;;;;;;11.18;7.65;;;3.80;99.90;;;;;;5007592;28;20042;-80
2023/11/22 08:30:15;;;;;;;9.23;7.07;;;3.80;99.90;;;;;;5010859;28;20553;-80
2023/11/22 08:32:43;;;;;;;12.05;7.82;;;3.80;99.90;;;;;;5021323;28;20050;-80
2023/11/22 08:35:11;;;;;;;10.45;7.10;;;3.90;99.90;;;;;;5018220;28;20533;-80
2023/11/22 08:37:41;;;;;;;13.25;6.88;;;4.00;99.90;;;;;;5010452;28;20414;-80
2023/11/22 08:40:14;;;;;;;10.77;7.22;;;3.90;99.90;;;;;;5009839;28;20181;-81
2023/11/22 08:42:40;;;;;;;8.80;6.43;;;3.80;99.90;;;;;;5013981;28;20049;-81
2023/11/22 08:45:08;;;;;;;10.40;6.88;;;3.70;99.90;;;;;;5009470;28;20054;-80
2023/11/22 08:47:35;;;;;;;13.35;7.38;;;3.70;99.90;;;;;;5022602;28;20049;-81
2023/11/22 08:50:03;;;;;;;13.57;7.47;;;3.70;99.90;;;;;;5016827;28;20116;-79
2023/11/22 08:52:32;;;;;;;11.68;7.68;;;3.70;99.90;;;;;;5017550;28;20052;-80
2023/11/22 08:55:00;;;;;;;10.57;7.32;;;3.60;99.90;;;;;;5001353;28;20077;-79
2023/11/22 08:57:27;;;;;;;11.88;7.80;;;3.60;99.90;;;;;;5015323;28;20058;-80
2023/11/22 08:59:54;;;;;;;13.18;7.85;;;3.50;99.90;;;;;;5017886;28;20477;-80
2023/11/22 09:02:22;;;;;;;13.23;8.32;;;3.50;99.90;;;;;;5013006;28;20132;-80
2023/11/22 09:04:49;;;;;;;11.93;7.68;;;3.50;99.90;;;;;;5017768;28;20116;-80
2023/11/22 09:07:16;;;;;;;10.93;7.28;;;3.60;99.90;;;;;;4999920;28;20046;-80
2023/11/22 09:09:43;;;;;;;12.38;7.28;;;3.60;99.90;;;;;;5018322;28;20420;-80
2023/11/22 09:12:12;;;;;;;11.60;7.60;;;3.60;99.90;;;;;;5000544;28;20052;-80
2023/11/22 09:14:43;;;;;;;9.93;7.05;;;3.60;99.90;;;;;;5023453;28;20433;-80
2023/11/22 09:17:10;;;;;;;11.50;7.82;;;3.70;99.90;;;;;;5019964;28;20100;-80
2023/11/22 09:19:37;;;;;;;9.52;7.15;;;3.80;99.90;;;;;;5022099;28;20069;-80
2023/11/22 09:22:06;;;;;;;11.20;8.23;;;3.80;99.90;;;;;;5016686;28;20046;-80
2023/11/22 09:24:33;;;;;;;10.15;7.53;;;3.90;99.90;;;;;;5023139;28;20045;-80
2023/11/22 09:27:02;;;;;;;11.75;7.97;;;3.90;99.90;;;;;;5015869;28;20050;-80
2023/11/22 09:29:29;;;;;;;15.80;8.60;;;3.90;99.90;;;;;;5015108;28;20127;-81
2023/11/22 09:31:56;;;;;;;11.20;9.23;;;4.00;99.90;;;;;;5014682;28;20057;-81
2023/11/22 09:34:24;;;;;;;11.15;7.15;;;4.00;99.90;;;;;;5016956;28;20053;-79
2023/11/22 09:36:51;;;;;;;10.55;6.93;;;4.00;99.90;;;;;;5006736;28;20100;-79
2023/11/22 09:39:21;;;;;;;12.02;7.20;;;4.00;99.90;;;;;;5013552;28;20047;-80
2023/11/22 09:41:51;;;;;;;;;;;4.00;99.90;;;;;;5019223;28;20041;-80
2023/11/22 09:44:18;;;;;;;9.75;6.70;;;4.00;99.90;;;;;;4997698;28;19933;-80
2023/11/22 09:46:48;;;;;;;10.57;7.55;;;4.00;99.90;;;;;;4998331;28;20050;-79
2023/11/22 09:49:22;;;;;;;11.50;6.97;;;3.90;99.90;;;;;;5002042;28;20053;-80
2023/11/22 09:51:51;;;;;;;10.07;7.20;;;3.90;99.90;;;;;;5014428;28;20592;-80
2023/11/22 09:54:20;;;;;;;14.53;7.60;;;4.00;99.90;;;;;;5016116;28;20054;-80
2023/11/22 09:56:50;;;;;;;10.55;6.45;;;4.00;99.90;;;;;;4996157;28;20494;-80
2023/11/22 09:59:23;;;;;;;10.55;6.13;;;4.10;99.90;;;;;;5016943;28;20046;-79
2023/11/22 10:01:52;;;;;;;8.82;5.75;;;4.10;99.90;;;;;;4991896;28;20450;-81
2023/11/22 10:04:19;;;;;;;10.82;6.57;;;4.10;99.90;;;;;;5015101;28;20132;-80
2023/11/22 10:06:46;;;;;;;8.75;6.10;;;4.20;99.90;;;;;;5013986;28;20521;-80
2023/11/22 10:09:14;;;;;;;10.55;6.43;;;4.10;99.90;;;;;;5031012;28;20107;-80
2023/11/22 10:11:43;;;;;;;10.20;6.22;;;4.00;99.90;;;;;;5013433;28;20050;-80
2023/11/22 10:14:10;;;;;;;9.73;6.18;;;4.00;99.90;;;;;;5018920;28;20054;-79
2023/11/22 10:16:37;;;;;;;10.25;6.88;;;4.00;99.90;;;;;;5016195;28;20041;-80
2023/11/22 10:19:07;;;;;;;11.77;6.32;;;3.90;99.90;;;;;;5018679;28;20046;-80
2023/11/22 10:21:34;;;;;;;10.63;6.28;;;3.80;99.90;;;;;;5008761;28;20513;-80
2023/11/22 10:24:02;;;;;;;11.23;6.43;;;3.80;99.90;;;;;;5002441;28;20057;-80
2023/11/22 10:26:30;;;;;;;10.07;6.32;;;3.90;99.90;;;;;;5013048;28;20136;-79
2023/11/22 10:28:58;;;;;;;11.52;7.13;;;4.00;99.90;;;;;;5014049;28;20053;-80
2023/11/22 10:31:25;;;;;;;8.30;5.70;;;4.00;99.90;;;;;;5019224;28;20054;-80
2023/11/22 10:33:55;;;;;;;10.50;6.68;;;3.90;99.90;;;;;;5012145;28;20049;-80
2023/11/22 10:36:22;;;;;;;9.18;6.65;;;4.00;99.90;;;;;;5024055;28;20046;-80
2023/11/22 10:38:52;;;;;;;9.48;6.43;;;4.10;99.90;;;;;;5012387;28;20050;-80
2023/11/22 10:41:22;;;;;;;10.82;6.50;;;4.20;99.90;;;;;;5014756;28;20525;-80
2023/11/22 10:43:52;;;;;;;8.10;5.57;;;4.20;99.90;;;;;;5007601;28;20050;-80
2023/11/22 10:46:21;;;;;;;9.05;5.65;;;4.20;99.90;;;;;;5011314;28;20054;-79
2023/11/22 10:48:48;;;;;;;10.15;5.50;;;4.20;99.90;;;;;;4987791;28;20045;-80
2023/11/22 10:51:16;;;;;;;8.40;5.88;;;4.20;99.90;;;;;;5017044;28;20108;-80
2023/11/22 10:53:48;;;;;;;8.70;5.20;;;4.30;99.90;;;;;;5009926;28;20101;-80
2023/11/22 10:56:17;;;;;;;5.70;4.65;;;4.30;99.90;;;;;;5015768;28;20089;-79
2023/11/22 10:58:51;;;;;;;6.85;4.75;;;4.30;99.90;;;;;;4992432;28;20509;-80
2023/11/22 11:01:21;;;;;;;7.45;4.85;;;4.30;99.90;;;;;;5001303;28;20054;-80
2023/11/22 11:03:57;;;;;;;7.18;5.38;;;4.30;99.90;;;;;;5004966;28;20497;-79
2023/11/22 11:06:28;;;;;;;8.13;5.25;;;4.30;99.90;;;;;;5013165;28;20491;-80
2023/11/22 11:08:59;;;;;;;6.70;4.45;;;4.50;99.90;;;;;;5005471;28;20054;-80
2023/11/22 11:11:29;;;;;;;7.95;5.47;;;4.60;99.90;;;;;;5011942;28;20117;-80
2023/11/22 11:13:56;;;;;;;6.95;4.82;;;4.70;99.90;;;;;;5015173;28;20551;-80
2023/11/22 11:16:24;;;;;;;7.38;5.13;;;4.80;99.90;;;;;;5011161;28;20421;-80
2023/11/22 11:18:51;;;;;;;6.47;4.28;;;4.80;99.90;;;;;;5018747;28;20460;-79
2023/11/22 11:21:18;;;;;;;4.55;3.90;;;4.70;99.90;;;;;;5012011;28;20121;-80
2023/11/22 11:23:46;;;;;;;7.75;4.85;;;4.70;99.90;;;;;;5026936;28;20037;-79
2023/11/22 11:26:21;;;;;;;6.13;4.60;;;4.70;99.90;;;;;;5012817;28;20061;-79
2023/11/22 11:28:51;;;;;;;6.20;4.53;;;4.60;99.90;;;;;;4996179;28;20086;-79
2023/11/22 11:31:22;;;;;;;7.85;5.22;;;4.60;99.90;;;;;;5016647;28;20057;-79
2023/11/22 11:33:49;;;;;;;7.68;4.88;;;4.60;99.90;;;;;;5013413;28;20132;-81
2023/11/22 11:36:24;;;;;;;7.15;4.85;;;4.50;99.90;;;;;;4999265;28;20050;-79
2023/11/22 11:38:54;;;;;;;8.38;5.25;;;4.60;99.90;;;;;;5010606;28;20461;-80
2023/11/22 11:41:28;;;;;;;5.13;3.55;;;4.70;99.90;;;;;;5012464;28;20055;-79
2023/11/22 11:43:57;;;;;;;7.20;4.00;;;4.60;99.90;;;;;;5008462;28;20054;-79
2023/11/22 11:46:25;;;;;;;5.30;3.75;;;4.50;99.90;;;;;;5023593;28;20054;-79
2023/11/22 11:48:53;;;;;;;6.75;3.63;;;4.50;99.90;;;;;;5012666;28;20088;-79
2023/11/22 11:51:25;;;;;;;7.65;3.92;;;4.50;99.90;;;;;;5011090;28;20050;-78
2023/11/22 11:53:53;;;;;;;4.43;3.20;;;4.50;99.90;;;;;;5013035;28;20061;-79
2023/11/22 11:56:20;;;;;;;5.70;3.67;;;4.40;99.90;;;;;;5015408;28;20053;-81
2023/11/22 11:58:49;;;;;;;5.43;3.92;;;4.40;99.90;;;;;;5021571;28;20037;-79
2023/11/22 12:01:20;;;;;;;6.38;4.05;;;4.30;99.90;;;;;;5011806;28;20085;-78
2023/11/22 12:03:47;;;;;;;7.13;3.85;;;4.30;99.90;;;;;;5017570;28;20409;-79
2023/11/22 12:06:17;;;;;;;4.97;3.42;;;4.30;99.90;;;;;;5008650;28;20391;-78
2023/11/22 12:08:47;;;;;;;5.65;3.40;;;4.30;99.90;;;;;;5015809;28;20083;-79
2023/11/22 12:11:15;;;;;;;5.82;3.88;;;4.20;99.90;;;;;;5005278;28;20058;-79
2023/11/22 12:13:46;;;;;;;5.72;3.83;;;4.20;99.90;;;;;;5017087;28;20045;-79
2023/11/22 12:16:17;;;;;;;5.53;3.80;;;4.30;99.90;;;;;;5010705;28;20080;-79
2023/11/22 12:18:49;;;;;;;5.80;3.28;;;4.30;99.90;;;;;;5009413;28;20054;-79
2023/11/22 12:21:17;;;;;;;4.30;3.40;;;4.20;99.90;;;;;;5013165;28;20294;-79
2023/11/22 12:23:47;;;;;;;6.32;3.40;;;4.20;99.90;;;;;;5022930;28;20050;-80
2023/11/22 12:26:19;;;;;;;4.53;3.13;;;4.20;99.90;;;;;;5010765;28;20108;-79
2023/11/22 12:28:47;;;;;;;5.95;3.33;;;4.20;99.90;;;;;;5020366;28;20074;-80
2023/11/22 12:31:34;;;;;;;5.53;3.55;;;4.10;99.90;;;;;;5017155;28;20101;-79
2023/11/22 12:34:01;;;;;;;4.40;3.00;;;4.20;99.90;;;;;;5012625;28;20065;-80
2023/11/22 12:36:29;;;;;;;5.45;3.35;;;4.10;99.90;;;;;;5018369;28;20053;-79
2023/11/22 12:38:57;;;;;;;5.07;3.58;;;4.10;99.90;;;;;;5007177;28;20045;-79
2023/11/22 12:41:27;;;;;;;3.90;3.08;;;4.10;99.90;;;;;;5016682;28;20117;-79
2023/11/22 12:44:06;;;;;;;4.18;3.00;;;4.00;99.90;;;;;;5013297;28;20056;-79
2023/11/22 12:46:57;;;;;;;5.80;3.00;;;4.10;99.90;;;;;;5015811;28;20054;-79
2023/11/22 12:49:26;;;;;;;5.28;3.08;;;4.00;99.90;;;;;;5014355;28;20050;-81
2023/11/22 12:51:55;;;;;;;4.95;2.80;;;4.00;99.90;;;;;;5019070;28;20057;-79